Time;durP1;ratioP1;P1;durP2;ratioP2;P2;SDS_P1;SDS_P2;PMS_P1;PMS_P2;Temp;Humidity;BMP_temperature;BMP_pressure;BME280_temperature;BME280_humidity;BME280_pressure;Samples;Min_cycle;Max_cycle;Signal;HPM_P1;HPM_P2
2022/08/05 00:01:34;;;;;;;9.10;5.22;;;22.60;20.30;;;;;;5055065;28;34413;-79
2022/08/05 00:04:00;;;;;;;7.50;5.28;;;22.50;20.40;;;;;;5082196;28;34443;-79
2022/08/05 00:06:26;;;;;;;9.90;5.50;;;22.50;20.60;;;;;;5054170;28;34189;-79
2022/08/05 00:08:52;;;;;;;7.18;5.20;;;22.40;20.60;;;;;;5071690;28;34133;-80
2022/08/05 00:11:18;;;;;;;7.57;5.57;;;22.40;20.70;;;;;;5073297;28;33940;-79
2022/08/05 00:13:44;;;;;;;8.95;5.43;;;22.40;20.90;;;;;;5054387;28;36356;-79
2022/08/05 00:16:13;;;;;;;8.38;5.95;;;22.30;20.90;;;;;;5090151;28;34293;-80
2022/08/05 00:18:44;;;;;;;6.93;5.20;;;22.30;21.40;;;;;;5073830;28;34057;-79
2022/08/05 00:21:11;;;;;;;6.70;4.93;;;22.30;21.60;;;;;;5070711;28;34263;-79
2022/08/05 00:23:38;;;;;;;8.55;5.30;;;22.30;21.30;;;;;;5055437;28;36023;-79
2022/08/05 00:26:05;;;;;;;6.57;4.63;;;22.20;21.20;;;;;;5072460;28;33878;-79
2022/08/05 00:28:31;;;;;;;8.00;5.28;;;22.20;21.20;;;;;;5055869;28;34296;-79
2022/08/05 00:30:57;;;;;;;7.43;5.07;;;22.20;21.30;;;;;;5075320;28;33753;-79
2022/08/05 00:33:23;;;;;;;6.38;4.97;;;22.20;21.50;;;;;;5073565;28;36551;-79
2022/08/05 00:35:49;;;;;;;7.53;5.07;;;22.10;21.50;;;;;;5079451;28;34257;-79
2022/08/05 00:38:15;;;;;;;6.38;4.78;;;22.10;21.70;;;;;;5053279;28;34297;-79
2022/08/05 00:40:57;;;;;;;6.93;5.07;;;22.00;21.80;;;;;;5066060;28;34117;-79
2022/08/05 00:43:24;;;;;;;6.75;5.32;;;22.00;25.50;;;;;;5070458;28;34344;-80
2022/08/05 00:45:50;;;;;;;7.28;5.57;;;22.00;22.20;;;;;;5090253;28;34478;-79
2022/08/05 00:48:20;;;;;;;7.78;4.93;;;22.00;22.30;;;;;;5068187;28;34240;-79
2022/08/05 00:50:49;;;;;;;6.60;5.20;;;22.00;22.90;;;;;;5023770;28;34177;-79
2022/08/05 00:53:16;;;;;;;8.63;5.20;;;21.90;22.90;;;;;;5055549;28;35605;-79
2022/08/05 00:55:43;;;;;;;9.20;5.50;;;22.00;22.80;;;;;;5045014;28;34330;-78
2022/08/05 00:58:12;;;;;;;10.00;5.70;;;21.90;22.90;;;;;;5054722;28;34562;-79
2022/08/05 01:00:39;;;;;;;8.45;5.68;;;21.90;23.30;;;;;;5068619;28;34077;-79
2022/08/05 01:03:05;;;;;;;7.03;5.60;;;22.00;23.10;;;;;;5071002;28;35536;-79
2022/08/05 01:05:31;;;;;;;6.72;4.93;;;22.00;23.10;;;;;;5070593;28;34049;-78
2022/08/05 01:07:58;;;;;;;10.85;5.50;;;21.90;23.20;;;;;;5019249;28;34127;-79
2022/08/05 01:10:34;;;;;;;7.45;5.07;;;21.90;23.10;;;;;;5048007;28;34228;-79
2022/08/05 01:13:07;;;;;;;6.82;5.45;;;21.90;24.70;;;;;;5059867;28;35576;-79
2022/08/05 01:15:38;;;;;;;6.90;4.85;;;22.00;24.10;;;;;;5090943;28;33988;-79
2022/08/05 01:18:12;;;;;;;6.20;5.00;;;22.00;24.10;;;;;;5074003;28;33753;-79
2022/08/05 01:21:01;;;;;;;9.48;6.28;;;21.90;23.70;;;;;;5067447;28;35108;-78
2022/08/05 01:23:52;;;;;;;10.73;5.93;;;21.90;27.00;;;;;;5062963;28;35789;-78
2022/08/05 01:26:39;;;;;;;10.93;5.85;;;21.90;25.80;;;;;;5066598;28;34325;-79
2022/08/05 01:29:12;;;;;;;7.57;5.68;;;22.00;27.90;;;;;;5044616;28;34007;-78
2022/08/05 01:31:44;;;;;;;9.63;6.28;;;22.00;24.90;;;;;;5010520;28;34184;-76
2022/08/05 01:34:16;;;;;;;9.25;6.25;;;22.00;25.00;;;;;;5030145;28;35515;-80
2022/08/05 01:36:50;;;;;;;8.90;6.25;;;22.00;25.70;;;;;;5063882;28;34402;-79
2022/08/05 01:39:18;;;;;;;7.25;6.05;;;22.00;26.10;;;;;;5071224;28;34244;-78
2022/08/05 01:41:46;;;;;;;10.45;5.97;;;22.00;25.70;;;;;;5062737;28;34106;-78
2022/08/05 01:44:13;;;;;;;10.50;6.63;;;22.00;25.60;;;;;;5062763;28;35863;-79
2022/08/05 01:46:41;;;;;;;9.43;6.63;;;22.00;25.70;;;;;;5070872;28;34150;-77
2022/08/05 01:49:09;;;;;;;9.20;6.72;;;22.00;25.80;;;;;;5049331;28;34645;-77
2022/08/05 01:51:38;;;;;;;12.10;7.00;;;22.10;25.80;;;;;;5045896;28;34183;-77
2022/08/05 01:54:08;;;;;;;11.05;6.18;;;22.10;25.70;;;;;;5060134;28;35981;-77
2022/08/05 01:56:38;;;;;;;12.25;6.82;;;22.10;26.30;;;;;;5048626;28;34082;-77
2022/08/05 01:59:08;;;;;;;13.55;6.43;;;22.10;26.00;;;;;;5037944;28;34055;-77
2022/08/05 02:01:34;;;;;;;9.10;6.00;;;22.20;26.00;;;;;;5059235;28;34133;-77
2022/08/05 02:04:01;;;;;;;9.38;6.28;;;22.20;25.70;;;;;;5067977;28;34401;-77
2022/08/05 02:06:28;;;;;;;7.40;6.10;;;22.20;25.80;;;;;;5079461;28;35117;-77
2022/08/05 02:08:54;;;;;;;8.13;6.30;;;22.20;25.80;;;;;;5062558;28;34236;-78
2022/08/05 02:11:22;;;;;;;7.97;6.15;;;22.20;25.80;;;;;;5066597;28;34609;-77
2022/08/05 02:13:59;;;;;;;8.30;6.00;;;22.20;25.90;;;;;;5067838;28;35816;-77
2022/08/05 02:16:31;;;;;;;13.30;6.63;;;22.20;26.80;;;;;;5067840;28;34334;-77
2022/08/05 02:19:03;;;;;;;12.27;6.43;;;22.20;27.20;;;;;;5049360;28;34181;-76
2022/08/05 02:21:35;;;;;;;12.07;6.50;;;22.20;26.80;;;;;;5053594;28;34450;-77
2022/08/05 02:24:07;;;;;;;15.68;7.07;;;22.20;27.00;;;;;;5066674;28;36394;-77
2022/08/05 02:26:40;;;;;;;9.35;7.10;;;22.20;26.90;;;;;;5081272;28;34148;-77
2022/08/05 02:29:11;;;;;;;9.48;6.65;;;22.20;26.80;;;;;;5058092;28;34044;-79
2022/08/05 02:31:39;;;;;;;8.68;6.50;;;22.20;29.40;;;;;;5053005;28;34128;-78
2022/08/05 02:34:10;;;;;;;13.93;7.35;;;22.20;26.80;;;;;;5050235;28;35740;-79
2022/08/05 02:36:42;;;;;;;13.75;6.78;;;22.10;27.20;;;;;;5051866;28;34217;-76
2022/08/05 02:39:09;;;;;;;9.13;6.30;;;22.10;27.60;;;;;;5050523;28;34494;-77
2022/08/05 02:41:37;;;;;;;10.10;7.03;;;22.10;26.70;;;;;;5051057;28;34256;-79
2022/08/05 02:44:08;;;;;;;11.88;6.78;;;22.10;27.10;;;;;;5051625;28;34238;-78
2022/08/05 02:46:37;;;;;;;9.48;6.63;;;22.10;27.80;;;;;;5074262;28;34038;-78
2022/08/05 02:49:05;;;;;;;10.10;6.88;;;22.10;27.20;;;;;;5058382;28;34176;-78
2022/08/05 02:51:31;;;;;;;11.98;7.57;;;22.00;27.30;;;;;;5068042;28;34185;-79
2022/08/05 02:53:57;;;;;;;13.20;7.68;;;22.00;27.30;;;;;;5069280;28;35676;-78
2022/08/05 02:56:25;;;;;;;12.57;7.05;;;22.00;27.20;;;;;;5064851;28;34194;-78
2022/08/05 02:58:52;;;;;;;9.00;6.60;;;22.00;28.00;;;;;;5069002;28;33848;-78
2022/08/05 03:01:22;;;;;;;13.20;7.10;;;22.10;27.30;;;;;;5068680;28;34463;-78
2022/08/05 03:03:53;;;;;;;10.32;7.20;;;22.10;27.40;;;;;;5040742;28;36329;-78
2022/08/05 03:06:20;;;;;;;14.32;8.02;;;22.10;27.50;;;;;;5058090;28;34368;-79
2022/08/05 03:08:49;;;;;;;13.25;7.78;;;22.10;27.30;;;;;;5065487;28;34232;-78
2022/08/05 03:11:24;;;;;;;11.65;7.45;;;22.10;27.50;;;;;;5069434;28;34506;-78
2022/08/05 03:13:51;;;;;;;11.57;7.57;;;22.00;29.10;;;;;;5057716;28;35533;-78
2022/08/05 03:16:17;;;;;;;12.20;8.25;;;22.00;27.40;;;;;;5051325;28;34240;-78
2022/08/05 03:18:43;;;;;;;10.27;7.47;;;22.00;27.60;;;;;;5068163;28;34300;-77
2022/08/05 03:21:10;;;;;;;11.82;7.07;;;22.00;27.70;;;;;;5067113;28;34243;-78
2022/08/05 03:23:38;;;;;;;14.73;7.65;;;22.00;27.70;;;;;;5051507;28;36189;-78
2022/08/05 03:26:05;;;;;;;12.93;7.43;;;22.10;27.80;;;;;;5047336;28;34147;-78
2022/08/05 03:28:31;;;;;;;11.43;6.80;;;22.10;27.70;;;;;;5034824;28;34293;-78
2022/08/05 03:30:59;;;;;;;10.45;6.75;;;22.00;27.70;;;;;;5030706;28;34184;-81
2022/08/05 03:33:27;;;;;;;13.30;7.95;;;22.10;27.90;;;;;;5029851;28;36797;-77
2022/08/05 03:35:55;;;;;;;11.48;7.03;;;22.10;28.00;;;;;;5066623;28;34058;-77
2022/08/05 03:38:22;;;;;;;12.27;7.65;;;22.10;28.10;;;;;;5050474;28;34351;-78
2022/08/05 03:40:48;;;;;;;10.90;8.20;;;22.00;27.90;;;;;;5067440;28;34157;-78
2022/08/05 03:43:15;;;;;;;10.00;7.78;;;22.00;27.90;;;;;;5085424;28;34232;-78
2022/08/05 03:45:41;;;;;;;13.48;7.72;;;22.00;28.00;;;;;;5034661;28;34162;-78
2022/08/05 03:48:07;;;;;;;15.75;8.00;;;22.10;28.10;;;;;;5066982;28;34418;-78
2022/08/05 03:50:53;;;;;;;12.52;7.30;;;22.00;27.90;;;;;;5052033;28;34441;-79
2022/08/05 03:53:31;;;;;;;9.43;7.22;;;22.00;29.20;;;;;;5050860;28;36708;-79
2022/08/05 03:56:06;;;;;;;12.63;7.38;;;22.00;29.30;;;;;;5063671;28;34230;-78
2022/08/05 03:58:35;;;;;;;10.20;6.93;;;22.00;28.80;;;;;;5057909;28;34286;-78
2022/08/05 04:01:05;;;;;;;8.55;7.13;;;22.00;28.30;;;;;;5063712;28;33851;-77
2022/08/05 04:03:34;;;;;;;10.95;7.65;;;22.00;28.40;;;;;;5045904;28;35847;-78
2022/08/05 04:06:02;;;;;;;11.65;7.38;;;22.00;28.30;;;;;;5040949;28;34380;-77
2022/08/05 04:08:29;;;;;;;9.50;7.25;;;22.00;28.30;;;;;;5062521;28;34328;-77
2022/08/05 04:10:57;;;;;;;9.70;6.68;;;22.00;28.20;;;;;;5062750;28;34406;-78
2022/08/05 04:13:24;;;;;;;15.43;7.20;;;22.00;28.20;;;;;;5065964;28;34252;-77
2022/08/05 04:15:50;;;;;;;11.95;8.60;;;22.00;28.10;;;;;;5049480;28;34240;-77
2022/08/05 04:18:16;;;;;;;8.63;7.03;;;22.00;28.20;;;;;;5065990;28;34315;-78
2022/08/05 04:20:42;;;;;;;11.27;8.18;;;22.00;28.30;;;;;;5049256;28;34118;-77
2022/08/05 04:23:09;;;;;;;14.23;7.82;;;22.00;28.30;;;;;;5029223;28;35712;-78
2022/08/05 04:25:35;;;;;;;11.27;8.32;;;22.00;28.30;;;;;;5043905;28;34240;-77
2022/08/05 04:28:01;;;;;;;12.15;7.47;;;21.90;28.50;;;;;;5042430;28;34547;-78
2022/08/05 04:30:27;;;;;;;11.15;7.70;;;21.90;28.50;;;;;;5047009;28;34094;-77
2022/08/05 04:32:53;;;;;;;9.85;7.40;;;21.90;28.60;;;;;;5063548;28;35565;-77
2022/08/05 04:35:19;;;;;;;10.93;7.95;;;21.90;28.60;;;;;;5029287;28;34097;-77
2022/08/05 04:37:45;;;;;;;10.38;7.05;;;21.90;28.60;;;;;;5031276;28;34200;-78
2022/08/05 04:40:11;;;;;;;9.07;7.05;;;21.90;28.60;;;;;;5048450;28;34230;-78
2022/08/05 04:42:37;;;;;;;8.13;6.75;;;21.90;28.70;;;;;;5049066;28;36278;-78
2022/08/05 04:45:03;;;;;;;13.82;7.93;;;21.90;28.60;;;;;;5058042;28;34121;-77
2022/08/05 04:47:29;;;;;;;12.20;7.00;;;21.90;28.60;;;;;;5050892;28;34390;-76
2022/08/05 04:49:55;;;;;;;11.48;6.68;;;21.90;28.80;;;;;;5062489;28;34404;-77
2022/08/05 04:52:21;;;;;;;10.88;6.80;;;21.80;28.70;;;;;;5062179;28;36143;-77
2022/08/05 04:54:46;;;;;;;12.15;7.10;;;21.90;28.80;;;;;;5062409;28;34224;-77
2022/08/05 04:57:12;;;;;;;11.45;6.95;;;21.90;28.80;;;;;;5082357;28;34351;-77
2022/08/05 04:59:38;;;;;;;9.35;7.03;;;21.80;28.70;;;;;;5034345;28;34085;-77
2022/08/05 05:02:04;;;;;;;10.98;7.28;;;21.80;28.90;;;;;;5031061;28;35630;-79
2022/08/05 05:04:30;;;;;;;10.65;7.13;;;21.80;28.90;;;;;;5066926;28;34208;-77
2022/08/05 05:06:56;;;;;;;12.40;6.53;;;21.80;28.80;;;;;;5062418;28;34065;-77
2022/08/05 05:09:22;;;;;;;8.40;6.25;;;21.80;28.80;;;;;;5049661;28;34200;-78
2022/08/05 05:11:48;;;;;;;9.27;7.00;;;21.80;28.90;;;;;;5047125;28;35466;-78
2022/08/05 05:14:14;;;;;;;11.25;7.00;;;21.80;28.90;;;;;;5055117;28;34201;-78
2022/08/05 05:16:40;;;;;;;10.65;6.35;;;21.80;28.90;;;;;;5048581;28;34169;-78
2022/08/05 05:19:06;;;;;;;13.27;6.80;;;21.80;28.80;;;;;;5048457;28;34474;-78
2022/08/05 05:21:32;;;;;;;9.65;6.55;;;21.90;29.00;;;;;;5066365;28;35855;-78
2022/08/05 05:23:58;;;;;;;11.40;6.85;;;21.80;28.90;;;;;;5020582;28;34283;-78
2022/08/05 05:26:24;;;;;;;10.85;6.30;;;21.80;28.90;;;;;;5045065;28;34487;-78
2022/08/05 05:28:50;;;;;;;8.73;6.32;;;21.90;28.90;;;;;;5010329;28;34299;-78
2022/08/05 05:31:16;;;;;;;8.45;6.47;;;21.90;29.00;;;;;;5029787;28;35792;-78
2022/08/05 05:33:42;;;;;;;9.95;6.53;;;21.90;28.90;;;;;;5047595;28;34109;-78
2022/08/05 05:36:08;;;;;;;11.23;6.80;;;21.90;29.10;;;;;;5052423;28;34075;-78
2022/08/05 05:38:34;;;;;;;8.43;6.68;;;21.90;29.10;;;;;;5037267;28;34458;-78
2022/08/05 05:41:00;;;;;;;8.82;6.97;;;21.90;29.10;;;;;;5049507;28;36571;-78
2022/08/05 05:43:26;;;;;;;11.82;6.88;;;22.00;29.10;;;;;;5032042;28;34308;-78
2022/08/05 05:45:52;;;;;;;8.60;6.28;;;22.00;29.10;;;;;;5045535;28;34325;-78
2022/08/05 05:48:18;;;;;;;9.25;6.55;;;22.00;29.10;;;;;;5014529;28;34204;-78
2022/08/05 05:50:44;;;;;;;9.50;6.72;;;22.00;29.20;;;;;;5029814;28;35926;-78
2022/08/05 05:53:12;;;;;;;11.95;6.45;;;22.00;29.30;;;;;;5030662;28;34292;-78
2022/08/05 05:55:38;;;;;;;8.43;5.88;;;22.00;29.10;;;;;;5029895;28;34386;-78
2022/08/05 05:58:04;;;;;;;11.68;6.55;;;22.10;29.30;;;;;;5047355;28;34615;-78
2022/08/05 06:00:29;;;;;;;12.77;6.60;;;22.10;29.30;;;;;;5046269;28;36792;-78
2022/08/05 06:02:55;;;;;;;10.02;6.80;;;22.10;29.30;;;;;;5013041;28;34060;-78
2022/08/05 06:05:21;;;;;;;9.30;7.15;;;22.10;29.30;;;;;;5048620;28;34089;-78
2022/08/05 06:07:48;;;;;;;12.30;7.07;;;22.10;29.40;;;;;;5014058;28;34099;-78
2022/08/05 06:10:14;;;;;;;11.93;7.65;;;22.20;29.30;;;;;;5035884;28;35607;-78
2022/08/05 06:12:41;;;;;;;8.57;6.88;;;22.20;29.40;;;;;;5048689;28;34331;-78
2022/08/05 06:15:08;;;;;;;9.63;7.18;;;22.20;29.40;;;;;;5038149;28;34101;-77
2022/08/05 06:17:34;;;;;;;9.98;6.90;;;22.20;29.40;;;;;;5035509;28;34034;-78
2022/08/05 06:20:01;;;;;;;7.72;6.20;;;22.20;29.40;;;;;;5067820;28;34178;-78
2022/08/05 06:22:30;;;;;;;9.65;6.70;;;22.30;29.40;;;;;;5048420;28;34342;-78
2022/08/05 06:24:57;;;;;;;9.80;6.60;;;22.20;29.60;;;;;;5065358;28;34119;-78
2022/08/05 06:27:23;;;;;;;10.52;6.32;;;22.20;29.50;;;;;;5067898;28;34193;-77
2022/08/05 06:29:50;;;;;;;10.57;6.28;;;22.20;29.50;;;;;;5057449;28;35902;-80
2022/08/05 06:32:16;;;;;;;10.02;6.32;;;22.20;29.50;;;;;;5068425;28;34229;-78
2022/08/05 06:34:42;;;;;;;10.55;6.82;;;22.20;29.60;;;;;;5067452;28;34283;-78
2022/08/05 06:37:08;;;;;;;10.05;5.90;;;22.20;29.70;;;;;;5067972;28;34272;-78
2022/08/05 06:39:34;;;;;;;10.40;6.53;;;22.20;29.70;;;;;;5075836;28;35128;-78
2022/08/05 06:42:01;;;;;;;10.68;6.47;;;22.20;29.60;;;;;;5066011;28;34358;-77
2022/08/05 06:44:28;;;;;;;7.40;5.25;;;22.20;29.80;;;;;;5065359;28;34140;-78
2022/08/05 06:46:55;;;;;;;7.07;4.82;;;22.10;29.90;;;;;;5049348;28;34109;-82
2022/08/05 06:49:21;;;;;;;8.00;5.13;;;22.10;29.70;;;;;;5050508;28;36742;-80
2022/08/05 06:51:47;;;;;;;9.80;5.35;;;22.10;29.50;;;;;;5067901;28;34413;-77
2022/08/05 06:54:13;;;;;;;8.23;5.40;;;22.10;29.30;;;;;;5066083;28;34175;-78
2022/08/05 06:56:39;;;;;;;7.00;4.28;;;22.20;29.30;;;;;;5066149;28;34243;-79
2022/08/05 06:59:06;;;;;;;6.72;4.50;;;22.30;29.20;;;;;;5047812;28;35865;-78
2022/08/05 07:01:32;;;;;;;6.18;4.63;;;22.40;29.00;;;;;;5060998;28;34292;-79
2022/08/05 07:03:58;;;;;;;7.93;5.22;;;22.40;28.80;;;;;;5064724;28;34114;-77
2022/08/05 07:06:24;;;;;;;9.23;4.88;;;22.40;28.80;;;;;;5069910;28;34158;-81
2022/08/05 07:08:50;;;;;;;6.15;4.35;;;22.50;28.80;;;;;;5034881;28;36023;-78
2022/08/05 07:11:16;;;;;;;5.88;4.25;;;22.50;28.60;;;;;;5066912;28;34545;-78
2022/08/05 07:19:07;;;;;;;7.53;5.38;;;22.50;28.30;;;;;;5083934;28;34290;-77
2022/08/05 07:21:33;;;;;;;12.27;6.75;;;22.40;28.40;;;;;;5061931;28;34359;-77
2022/08/05 07:23:59;;;;;;;9.70;5.63;;;22.40;28.60;;;;;;5059120;28;34101;-77
2022/08/05 07:26:25;;;;;;;5.53;4.57;;;22.40;28.70;;;;;;5054318;28;34418;-77
2022/08/05 07:28:51;;;;;;;5.38;4.53;;;22.40;28.80;;;;;;5046899;28;34523;-78
2022/08/05 07:31:17;;;;;;;8.27;4.75;;;22.40;29.40;;;;;;5045816;28;34326;-77
2022/08/05 07:33:44;;;;;;;7.18;5.05;;;22.40;28.80;;;;;;5041336;28;34181;-78
2022/08/05 07:36:09;;;;;;;6.50;4.88;;;22.40;28.80;;;;;;5041898;28;34485;-76
2022/08/05 07:38:36;;;;;;;5.22;4.38;;;22.50;28.90;;;;;;5045944;28;35482;-76
2022/08/05 07:41:05;;;;;;;6.32;4.35;;;22.60;28.80;;;;;;5046795;28;34024;-77
2022/08/05 07:43:31;;;;;;;6.22;4.78;;;22.70;28.80;;;;;;5046051;28;34082;-77
2022/08/05 07:45:57;;;;;;;4.93;4.13;;;22.80;28.40;;;;;;5047432;28;34552;-77
2022/08/05 07:48:23;;;;;;;4.88;4.28;;;22.90;28.20;;;;;;5029765;28;35604;-77
2022/08/05 07:50:49;;;;;;;6.88;5.00;;;23.10;28.00;;;;;;5062581;28;34060;-77
2022/08/05 07:53:15;;;;;;;4.75;3.90;;;23.20;27.70;;;;;;5047665;28;34164;-78
2022/08/05 07:55:41;;;;;;;5.80;4.28;;;23.40;27.40;;;;;;5022063;28;34224;-77
2022/08/05 07:58:08;;;;;;;5.88;4.03;;;23.60;27.10;;;;;;5020783;28;35559;-78
2022/08/05 08:00:34;;;;;;;5.75;3.70;;;23.70;26.90;;;;;;5016556;28;34198;-78
2022/08/05 08:03:02;;;;;;;7.47;4.68;;;23.90;26.50;;;;;;5014522;28;34081;-78
2022/08/05 08:05:28;;;;;;;12.73;8.13;;;24.00;26.20;;;;;;5038661;28;34315;-77
2022/08/05 08:07:54;;;;;;;10.45;6.35;;;24.20;26.00;;;;;;5029233;28;36221;-78
2022/08/05 08:10:21;;;;;;;4.15;3.50;;;24.30;25.90;;;;;;5045362;28;34351;-77
2022/08/05 08:12:48;;;;;;;4.10;3.53;;;24.30;25.80;;;;;;5011766;28;34063;-78
2022/08/05 08:15:14;;;;;;;4.30;3.40;;;24.40;25.60;;;;;;5045500;28;34354;-77
2022/08/05 08:17:40;;;;;;;3.83;3.38;;;24.40;25.40;;;;;;5046568;28;36058;-77
2022/08/05 08:20:06;;;;;;;7.80;3.20;;;24.50;25.40;;;;;;5028935;28;34063;-78
2022/08/05 08:22:32;;;;;;;3.40;2.85;;;24.40;25.20;;;;;;5027506;28;34312;-79
2022/08/05 08:25:00;;;;;;;6.25;3.65;;;24.40;25.20;;;;;;5033973;28;34209;-78
2022/08/05 08:27:26;;;;;;;3.30;2.88;;;24.30;25.20;;;;;;5045124;28;35962;-80
2022/08/05 08:29:52;;;;;;;4.82;2.78;;;24.30;25.20;;;;;;5049408;28;34161;-79
2022/08/05 08:32:18;;;;;;;3.05;2.83;;;24.20;25.00;;;;;;5046472;28;34216;-78
2022/08/05 08:34:44;;;;;;;3.40;2.55;;;24.20;25.00;;;;;;5038823;28;34086;-77
2022/08/05 08:37:10;;;;;;;4.65;2.78;;;24.20;25.00;;;;;;5046670;28;35359;-78
2022/08/05 08:39:36;;;;;;;2.80;2.60;;;24.20;25.60;;;;;;5046911;28;34507;-76
2022/08/05 08:42:03;;;;;;;3.53;3.08;;;24.20;24.80;;;;;;5062598;28;34254;-77
2022/08/05 08:44:31;;;;;;;2.95;2.70;;;24.20;24.70;;;;;;5029526;28;34141;-76
2022/08/05 08:46:58;;;;;;;3.55;2.90;;;24.30;24.70;;;;;;5031815;28;35518;-76
2022/08/05 08:49:26;;;;;;;2.90;2.60;;;24.40;24.50;;;;;;5033990;28;34350;-78
2022/08/05 08:52:02;;;;;;;2.90;2.67;;;24.40;24.30;;;;;;5028497;28;34443;-76
2022/08/05 08:54:30;;;;;;;3.47;2.72;;;24.70;24.10;;;;;;5011338;28;34477;-76
2022/08/05 08:56:57;;;;;;;4.50;2.67;;;24.90;23.70;;;;;;5025699;28;34407;-75
2022/08/05 08:59:23;;;;;;;3.30;2.63;;;25.20;23.00;;;;;;5045776;28;34415;-75
2022/08/05 09:01:51;;;;;;;4.38;2.65;;;25.60;22.00;;;;;;5043313;28;34193;-78
2022/08/05 09:04:17;;;;;;;3.55;3.10;;;25.90;21.70;;;;;;5028053;28;34331;-76
2022/08/05 09:06:43;;;;;;;2.63;2.40;;;26.10;21.70;;;;;;5045263;28;36346;-76
2022/08/05 09:09:09;;;;;;;3.50;2.40;;;26.20;21.30;;;;;;5028878;28;34147;-76
2022/08/05 09:11:36;;;;;;;2.58;2.38;;;26.20;21.40;;;;;;5049506;28;34360;-78
2022/08/05 09:14:03;;;;;;;3.60;2.40;;;26.10;20.90;;;;;;5034955;28;34210;-77
2022/08/05 09:16:29;;;;;;;3.85;2.35;;;26.00;20.80;;;;;;5035746;28;35662;-78
2022/08/05 09:18:56;;;;;;;2.83;2.58;;;25.90;20.40;;;;;;5018187;28;34036;-78
2022/08/05 09:21:22;;;;;;;2.88;2.50;;;25.80;20.40;;;;;;5054110;28;34452;-76
2022/08/05 09:24:03;;;;;;;4.25;2.47;;;25.70;20.40;;;;;;5036857;28;34683;-77
2022/08/05 09:26:29;;;;;;;4.28;2.47;;;25.70;18.90;;;;;;5037137;28;35985;-76
2022/08/05 09:29:03;;;;;;;3.03;2.55;;;25.60;20.10;;;;;;5061105;28;34115;-76
2022/08/05 09:31:30;;;;;;;3.10;2.80;;;25.70;19.60;;;;;;5044651;28;34255;-78
2022/08/05 09:34:01;;;;;;;7.40;2.80;;;25.70;19.90;;;;;;5052825;28;34410;-78
2022/08/05 09:36:48;;;;;;;3.65;3.35;;;25.90;19.90;;;;;;5053402;28;36157;-77
2022/08/05 09:39:37;;;;;;;3.95;2.30;;;25.90;19.20;;;;;;5062695;28;34290;-76
2022/08/05 09:42:05;;;;;;;3.05;2.72;;;25.90;18.60;;;;;;5054986;28;34130;-77
2022/08/05 09:44:38;;;;;;;2.80;2.28;;;26.00;20.00;;;;;;5032715;28;34351;-78
2022/08/05 09:47:11;;;;;;;2.75;2.50;;;25.90;19.20;;;;;;5069777;28;34624;-78
2022/08/05 09:49:46;;;;;;;3.00;2.70;;;25.80;18.50;;;;;;5041992;28;34598;-78
2022/08/05 09:52:18;;;;;;;2.85;2.20;;;25.60;19.10;;;;;;5058237;28;34528;-78
2022/08/05 09:54:56;;;;;;;2.95;2.30;;;25.50;19.30;;;;;;5062811;28;34179;-78
2022/08/05 09:57:32;;;;;;;3.38;2.40;;;25.50;19.00;;;;;;5058038;28;35686;-80
2022/08/05 10:00:01;;;;;;;2.08;1.92;;;25.60;20.00;;;;;;5065692;28;34273;-80
2022/08/05 10:02:38;;;;;;;2.95;2.00;;;25.60;19.30;;;;;;5059634;28;34208;-78
2022/08/05 10:05:10;;;;;;;2.65;2.10;;;25.70;17.00;;;;;;5075112;28;34237;-77
2022/08/05 10:07:43;;;;;;;2.08;1.88;;;25.90;18.40;;;;;;5044326;28;36484;-78
2022/08/05 10:10:09;;;;;;;2.55;2.00;;;26.00;18.50;;;;;;5083179;28;34165;-78
2022/08/05 10:12:46;;;;;;;2.35;2.08;;;26.40;18.30;;;;;;5060953;28;34276;-78
2022/08/05 10:15:14;;;;;;;1.92;1.83;;;26.60;18.30;;;;;;5057864;28;33943;-78
2022/08/05 10:17:40;;;;;;;2.63;1.70;;;26.80;17.70;;;;;;5063708;28;35528;-77
2022/08/05 10:20:06;;;;;;;3.08;1.80;;;26.80;17.20;;;;;;5076912;28;34388;-78
2022/08/05 10:22:33;;;;;;;2.03;1.80;;;26.80;17.10;;;;;;5046351;28;34392;-79
2022/08/05 10:24:59;;;;;;;2.42;1.98;;;26.60;16.90;;;;;;5053492;28;34255;-78
2022/08/05 10:27:27;;;;;;;1.70;1.50;;;26.50;16.90;;;;;;5035932;28;35690;-79
2022/08/05 10:29:53;;;;;;;3.75;1.92;;;26.50;17.20;;;;;;5048129;28;34294;-78
2022/08/05 10:32:20;;;;;;;2.92;1.70;;;26.60;17.00;;;;;;5038515;28;34377;-79
2022/08/05 10:34:47;;;;;;;2.03;1.80;;;26.80;16.70;;;;;;5047907;28;35513;-79
2022/08/05 10:37:13;;;;;;;2.17;1.98;;;26.90;16.50;;;;;;5047040;28;35938;-79
2022/08/05 10:39:44;;;;;;;2.30;1.77;;;27.00;16.50;;;;;;5017928;28;34307;-78
2022/08/05 10:42:15;;;;;;;1.80;1.70;;;27.10;14.30;;;;;;5046188;28;34457;-78
2022/08/05 10:44:45;;;;;;;2.42;1.60;;;27.00;15.70;;;;;;5017081;28;34214;-78
2022/08/05 10:47:13;;;;;;;1.85;1.70;;;27.10;14.80;;;;;;5042355;28;35736;-78
2022/08/05 10:50:17;;;;;;;2.80;2.35;;;27.10;15.30;;;;;;5046931;28;34211;-81
2022/08/05 10:52:51;;;;;;;2.33;1.80;;;27.00;11.50;;;;;;5033104;28;34295;-79
2022/08/05 10:55:18;;;;;;;2.30;1.67;;;27.00;15.00;;;;;;5036068;28;34447;-80
2022/08/05 10:57:45;;;;;;;2.63;1.90;;;27.10;15.00;;;;;;5036955;28;35720;-80
2022/08/05 11:00:17;;;;;;;2.53;1.70;;;27.20;14.90;;;;;;5029081;28;34258;-78
2022/08/05 11:03:09;;;;;;;1.80;1.70;;;27.20;14.30;;;;;;5044149;28;34260;-81
2022/08/05 11:05:36;;;;;;;1.65;1.55;;;27.20;12.00;;;;;;5027243;28;34496;-80
2022/08/05 11:08:09;;;;;;;4.07;1.80;;;27.00;14.30;;;;;;5047992;28;36172;-80
2022/08/05 11:10:37;;;;;;;3.55;2.00;;;26.80;12.60;;;;;;5032908;28;34165;-78
2022/08/05 11:13:05;;;;;;;2.65;1.75;;;26.80;13.60;;;;;;5040497;28;34286;-78
2022/08/05 11:15:38;;;;;;;1.77;1.60;;;26.80;13.40;;;;;;5068726;28;33771;-78
2022/08/05 11:18:23;;;;;;;1.80;1.70;;;27.00;12.00;;;;;;5035703;28;35526;-77
2022/08/05 11:20:51;;;;;;;2.40;2.15;;;27.40;12.40;;;;;;5040380;28;33841;-80
2022/08/05 11:23:33;;;;;;;2.00;1.70;;;27.70;12.80;;;;;;5031814;28;34303;-81
2022/08/05 11:26:20;;;;;;;2.65;1.80;;;28.00;10.70;;;;;;5034388;28;34116;-79
2022/08/05 11:28:49;;;;;;;1.92;1.83;;;28.20;9.70;;;;;;5036460;28;36243;-77
2022/08/05 11:31:19;;;;;;;3.92;1.58;;;28.20;11.30;;;;;;5063828;28;34028;-80
2022/08/05 11:33:57;;;;;;;2.30;1.70;;;28.30;10.60;;;;;;5063187;28;34314;-80
2022/08/05 11:36:54;;;;;;;2.85;1.70;;;28.40;9.90;;;;;;5041926;28;34066;-82
2022/08/05 11:39:46;;;;;;;3.72;1.85;;;28.30;5.80;;;;;;5044236;28;36043;-78
2022/08/05 11:42:23;;;;;;;2.08;1.88;;;28.40;8.70;;;;;;5036492;28;34194;-79
2022/08/05 11:44:50;;;;;;;2.78;1.70;;;28.20;10.60;;;;;;5045889;28;34236;-79
2022/08/05 11:47:21;;;;;;;1.65;1.55;;;28.40;10.70;;;;;;5027140;28;34094;-81
2022/08/05 11:49:47;;;;;;;1.67;1.50;;;28.70;8.70;;;;;;5032455;28;36193;-80
2022/08/05 11:52:22;;;;;;;1.70;1.60;;;28.60;10.10;;;;;;5045982;28;34360;-82
2022/08/05 11:54:52;;;;;;;2.53;1.83;;;28.80;9.50;;;;;;5062262;28;34074;-78
2022/08/05 11:57:18;;;;;;;1.50;1.40;;;28.90;8.90;;;;;;5026279;28;34115;-80
2022/08/05 11:59:44;;;;;;;1.00;1.00;;;28.90;9.20;;;;;;5024784;28;35705;-80
2022/08/05 12:02:11;;;;;;;1.40;1.17;;;28.70;9.10;;;;;;5037350;28;34204;-80
2022/08/05 12:04:40;;;;;;;1.38;1.27;;;28.70;9.30;;;;;;5042170;28;34354;-79
2022/08/05 12:07:15;;;;;;;2.63;1.08;;;28.40;8.60;;;;;;5038712;28;34167;-79
2022/08/05 12:09:46;;;;;;;1.77;1.35;;;28.20;6.40;;;;;;5040332;28;35608;-81
2022/08/05 12:12:20;;;;;;;1.38;1.27;;;28.00;9.30;;;;;;5036394;28;33831;-82
2022/08/05 12:14:47;;;;;;;1.50;1.40;;;27.80;9.30;;;;;;5029275;28;34280;-82
2022/08/05 12:17:15;;;;;;;1.40;1.30;;;27.90;9.30;;;;;;5029886;28;34031;-81
2022/08/05 12:19:44;;;;;;;2.17;1.40;;;28.00;9.30;;;;;;5033039;28;36823;-80
2022/08/05 12:22:11;;;;;;;1.10;1.10;;;28.30;9.30;;;;;;5044299;28;34200;-80
2022/08/05 12:24:43;;;;;;;1.45;1.27;;;28.50;9.10;;;;;;5049438;28;34322;-80
2022/08/05 12:27:09;;;;;;;3.83;1.58;;;28.80;7.80;;;;;;5066278;28;34349;-79
2022/08/05 12:29:38;;;;;;;1.50;1.40;;;28.90;8.00;;;;;;5049790;28;35854;-80
2022/08/05 12:32:05;;;;;;;2.35;1.10;;;29.00;8.00;;;;;;5054498;28;34387;-78
2022/08/05 12:34:35;;;;;;;1.58;1.30;;;29.10;7.70;;;;;;5053266;28;34429;-80
2022/08/05 12:37:09;;;;;;;1.40;1.30;;;29.30;6.90;;;;;;5049818;28;35412;-77
2022/08/05 12:39:38;;;;;;;1.25;1.15;;;29.40;6.80;;;;;;5071467;28;34999;-80
2022/08/05 12:42:12;;;;;;;1.38;1.10;;;29.40;6.20;;;;;;5054848;28;34312;-80
2022/08/05 12:44:40;;;;;;;2.60;1.40;;;29.20;3.90;;;;;;5048095;28;34327;-80
2022/08/05 12:47:06;;;;;;;1.65;1.55;;;29.00;6.90;;;;;;5075208;28;34259;-82
2022/08/05 12:49:44;;;;;;;2.67;1.35;;;29.10;7.10;;;;;;5076343;28;35723;-81
2022/08/05 12:52:13;;;;;;;2.97;1.20;;;29.10;4.60;;;;;;5057970;28;34134;-79
2022/08/05 12:54:40;;;;;;;1.23;1.13;;;28.90;6.00;;;;;;5037813;28;35536;-80
2022/08/05 12:57:09;;;;;;;1.48;1.20;;;28.80;6.50;;;;;;5055117;28;34517;-79
2022/08/05 12:59:51;;;;;;;1.65;1.35;;;28.80;6.40;;;;;;5057245;28;35574;-80